الصفحة الرئيسية
METAR-TAF:

METAR-TAF

مطار :

مطار الدوحة الدولي

الدوحة, قطر

دائرة عرض: 25-15-40N, خط طول: 051-33-54E, ارتفاع: 11 متر

مراقبة الطقس الحالي

تاريخ ووقت الإصدار 44 دقيقة قبل الساعة 06:00UTC
ريح 6 عقدة من الجنوب الغربي, الاتجاه يتراوح بين الجنوب و الغرب
درجة الحرارة 37°درجة مئوية
الرطوبة 33%
ضغط 1005 hPa
الرؤية 10 كم أو أكثر
الغيوم لا تقل 1500 م ولا وجود لمزنة ركامية السحاب الأسود

METAR: OTBD 010600Z AUTO 23006KT 190V270 CAVOK 37/18 Q1005 NOSIG

زمن: 09:44 (06:44 UTC)

توقعات

تاريخ ووقت الإصدار 1ساعة و 42 دقيقة قبل الساعة 05:02UTC
التوقعات صالحة من01 الساعة 06 UTC إلى 02 الساعة 12 UTC
ريح 5 عقدة من الغرب
الرؤية 10 كم أو أكثر
الغيوم لا تقل 1500 م ولا وجود لمزنة ركامية السحاب الأسود
أصبح
من 01 الساعة 08 UTC إلى 01 الساعة 10 UTC
ريح 9 عقدة من الشمال
أصبح
من 01 الساعة 17 UTC إلى 01 الساعة 19 UTC
ريح 4 عقدة من الغرب
أصبح
من 02 الساعة 07 UTC إلى 02 الساعة 09 UTC
ريح 8 عقدة من الشمال الشرقي

TAF: OTBD 010502Z 0106/0212 27005KT CAVOK BECMG 0108/0110 01009KT BECMG 0117/0119 28004KT BECMG 0207/0209 04008KT

أرصاد الطقس والتوقعات من أكثر من 4000 مطار (تقارير الطقس للمطار METAR والتنبؤ بالطقس بالمطارTAF).

المحطات المتاحة هي النقط الصفراء والحمراء على الخريطة.

حرك المؤشر فوق النقطة لمعرفة اسم المحطة.

ثم انقر لمعرفة أرصاد وتوقعات الطقس.

لتغيير الخارطة: اضغط على الأزرار الخضراء مع رمز الصليب الأسود للتكبير. على الزر الأخضر مع شرطة للتصغير، أو على الأسهم الخضراء للخرائط المجاورة.


METAR-TAF: